CLEVELAND ARTCC (ZOB) FACILITY RUNWAY SELECTOR
METARS UPDATED AT 1034Z

Page auto refreshed every 5 minutes
FACILITYWINDVISIBILITY
CEILING
RUNWAY FLOWAPPROACHMETAR
KAGC350@0510SM
----
West Flow
DEP: 28, 31 (GA)
ARR: 28, 31 (GA)
Visual ApproachKAGC 100953Z 35005KT 10SM CLR M07/M09 A3012 RMK AO2 SLP223 I1000 T10721089
KBKLCalm9SM
OVC023
Calm Wind Flow
DEP: 24L (GA) 24R
ARR: 24L (GA), 24R
Instrument ApproachKBKL 100953Z 00000KT 9SM OVC023 M01/M05 A3019 RMK AO2 SLP231 T10111050
KBUF230@0310SM
BKN021
Calm Wind Flow
DEP: 23
ARR: 23
Instrument ApproachKBUF 100954Z 23003KT 10SM BKN021 OVC029 M02/M05 A3016 RMK AO2 SLP222 T10221050
KCAK010@035SM
OVC015
Calm Wind Flow
DEP: 19
ARR: 23
Instrument ApproachKCAK 100951Z 01003KT 5SM HZ OVC015 M06/M09 A3016 RMK AO2 SLP230 T10611089 $
KCGFCalm10SM
OVC019
Calm Wind Flow
DEP: 6
ARR: 6
Instrument ApproachKCGF 100345Z 00000KT 10SM OVC019 M04/M05 A3022
KCLE180@037SM
OVC021
Calm Wind Flow
DEP: 6R
ARR: 6L
Instrument ApproachKCLE 100951Z 18003KT 7SM OVC021 M05/M07 A3021 RMK AO2 SLP242 T10501067
KDTW310@044SM
OVC014
Calm Wind Flow
DEP: 21R, 22L
ARR: 21L, 22R
Instrument ApproachKDTW 101000Z 31004KT 4SM HZ OVC014 M04/M07 A3024 RMK AO2 T10441072
KERI050@0410SM
OVC021
Calm Wind Flow
DEP: 6
ARR: 6
Instrument ApproachKERI 100951Z 05004KT 10SM OVC021 M01/M06 A3018 RMK AO2 SLP230 T10111056 TSNO
KFNT300@049SM
OVC011
Calm Wind Flow
DEP: 18
ARR: 18
Instrument ApproachKFNT 100953Z 30004KT 9SM OVC011 M04/M07 A3023 RMK AO2 SLP250 T10441067 $
KIAG230@037SM
OVC032
Calm Wind Flow
DEP: 28R, 28L (GA)
ARR: 28R, 28L (GA)
Visual ApproachKIAG 100953Z 23003KT 7SM OVC032 M03/M05 A3016 RMK AO2 SLP229 T10281050 $
KJST330@0410SM
----
Calm Wind Flow
DEP: 15
ARR: 15
Visual ApproachKJST 100954Z 33004KT 10SM CLR M07/M11 A3003 RMK AO2 SLP203 T10671106
KLAN310@058SM
OVC008
27 Flow
DEP: 27
ARR: 27
Instrument ApproachKLAN 100953Z 31005KT 8SM OVC008 M04/M06 A3025 RMK AO2 SLP255 T10441061
KPIT070@0410SM
OVC008
Calm Wind Flow
DEP: 28R, 28C
ARR: 28R, 28L, 32 (GA)
Instrument ApproachKPIT 100951Z 07004KT 10SM OVC008 M07/M08 A3014 RMK AO2 SLP232 T10671078
KROC270@059SM
OVC030
25/28 Flow
DEP: 25 (GA), 28
ARR: 25 (GA), 28
Visual ApproachKROC 101007Z 27005KT 9SM OVC030 M02/M05 A3016 RMK AO2 T10171050
KTOL320@085SM
OVC007
25/34 Flow
DEP: 25, 34 (GA)
ARR: 25, 34 (GA)
Instrument ApproachKTOL 100952Z 32008KT 5SM BR OVC007 M04/M06 A3024 RMK AO2 SLP247 T10391061 $
KYNG020@0810SM
OVC013
5 Flow
DEP: 5
ARR: 5
Instrument ApproachKYNG 100951Z 02008KT 10SM OVC013 M03/M06 A3015 RMK AO2 SLP226 T10331061 $
NOTE: Runway selection based on current VATSIM metar and ZOB SOPs.
Ceiling = Lowest reported ceiling.
GA = General Aviation aircraft only.
METAR Decode Key